sensor_id;sensor_type;location;lat;lon;timestamp;P1;durP1;ratioP1;P2;durP2;ratioP2
14209;SDS011;7188;56.070;12.698;2023-06-10T00:00:39;2.10;;;1.03;;
14209;SDS011;7188;56.070;12.698;2023-06-10T00:03:06;1.93;;;0.70;;
14209;SDS011;7188;56.070;12.698;2023-06-10T00:05:32;0.67;;;0.60;;
14209;SDS011;7188;56.070;12.698;2023-06-10T00:07:59;0.87;;;0.80;;
14209;SDS011;7188;56.070;12.698;2023-06-10T00:10:32;1.87;;;0.53;;
14209;SDS011;7188;56.070;12.698;2023-06-10T00:12:58;1.63;;;0.70;;
14209;SDS011;7188;56.070;12.698;2023-06-10T00:15:24;2.67;;;0.70;;
14209;SDS011;7188;56.070;12.698;2023-06-10T00:17:50;2.60;;;0.73;;
14209;SDS011;7188;56.070;12.698;2023-06-10T00:20:18;0.50;;;0.50;;
14209;SDS011;7188;56.070;12.698;2023-06-10T00:22:43;0.57;;;0.40;;
14209;SDS011;7188;56.070;12.698;2023-06-10T00:25:10;1.57;;;0.70;;
14209;SDS011;7188;56.070;12.698;2023-06-10T00:27:36;0.60;;;0.50;;
14209;SDS011;7188;56.070;12.698;2023-06-10T00:30:02;0.43;;;0.43;;
14209;SDS011;7188;56.070;12.698;2023-06-10T00:32:31;1.53;;;0.60;;
14209;SDS011;7188;56.070;12.698;2023-06-10T00:34:57;0.53;;;0.40;;
14209;SDS011;7188;56.070;12.698;2023-06-10T00:37:23;1.93;;;0.63;;
14209;SDS011;7188;56.070;12.698;2023-06-10T00:39:48;0.40;;;0.40;;
14209;SDS011;7188;56.070;12.698;2023-06-10T00:42:14;1.50;;;0.50;;
14209;SDS011;7188;56.070;12.698;2023-06-10T00:44:40;2.50;;;0.43;;
14209;SDS011;7188;56.070;12.698;2023-06-10T00:47:06;1.47;;;0.60;;
14209;SDS011;7188;56.070;12.698;2023-06-10T00:49:32;1.63;;;0.50;;
14209;SDS011;7188;56.070;12.698;2023-06-10T00:51:58;0.73;;;0.40;;
14209;SDS011;7188;56.070;12.698;2023-06-10T00:54:24;0.70;;;0.40;;
14209;SDS011;7188;56.070;12.698;2023-06-10T00:56:51;0.40;;;0.40;;
14209;SDS011;7188;56.070;12.698;2023-06-10T00:59:17;0.50;;;0.50;;
14209;SDS011;7188;56.070;12.698;2023-06-10T01:01:43;2.40;;;0.53;;
14209;SDS011;7188;56.070;12.698;2023-06-10T01:04:12;0.30;;;0.30;;
14209;SDS011;7188;56.070;12.698;2023-06-10T01:06:41;1.17;;;0.33;;
14209;SDS011;7188;56.070;12.698;2023-06-10T01:11:52;2.27;;;0.40;;
14209;SDS011;7188;56.070;12.698;2023-06-10T01:14:39;1.67;;;0.30;;
14209;SDS011;7188;56.070;12.698;2023-06-10T01:17:10;1.33;;;0.40;;
14209;SDS011;7188;56.070;12.698;2023-06-10T01:19:36;2.00;;;0.80;;
14209;SDS011;7188;56.070;12.698;2023-06-10T01:22:02;1.23;;;0.40;;
14209;SDS011;7188;56.070;12.698;2023-06-10T01:24:28;0.43;;;0.23;;
14209;SDS011;7188;56.070;12.698;2023-06-10T01:26:58;1.70;;;0.50;;
14209;SDS011;7188;56.070;12.698;2023-06-10T01:29:33;0.30;;;0.30;;
14209;SDS011;7188;56.070;12.698;2023-06-10T01:32:08;0.50;;;0.50;;
14209;SDS011;7188;56.070;12.698;2023-06-10T01:34:42;0.67;;;0.40;;
14209;SDS011;7188;56.070;12.698;2023-06-10T01:37:09;0.70;;;0.50;;
14209;SDS011;7188;56.070;12.698;2023-06-10T01:39:38;0.67;;;0.30;;
14209;SDS011;7188;56.070;12.698;2023-06-10T01:42:05;2.77;;;0.20;;
14209;SDS011;7188;56.070;12.698;2023-06-10T01:44:31;0.30;;;0.30;;
14209;SDS011;7188;56.070;12.698;2023-06-10T01:46:57;1.13;;;0.43;;
14209;SDS011;7188;56.070;12.698;2023-06-10T01:49:23;0.23;;;0.23;;
14209;SDS011;7188;56.070;12.698;2023-06-10T01:51:49;0.47;;;0.40;;
14209;SDS011;7188;56.070;12.698;2023-06-10T01:54:15;0.37;;;0.37;;
14209;SDS011;7188;56.070;12.698;2023-06-10T01:56:41;2.17;;;0.33;;
14209;SDS011;7188;56.070;12.698;2023-06-10T01:59:06;0.80;;;0.30;;
14209;SDS011;7188;56.070;12.698;2023-06-10T02:01:32;3.13;;;0.33;;
14209;SDS011;7188;56.070;12.698;2023-06-10T02:03:58;1.07;;;0.30;;
14209;SDS011;7188;56.070;12.698;2023-06-10T02:06:23;0.20;;;0.20;;
14209;SDS011;7188;56.070;12.698;2023-06-10T02:08:49;2.23;;;0.27;;
14209;SDS011;7188;56.070;12.698;2023-06-10T02:11:15;0.87;;;0.43;;
14209;SDS011;7188;56.070;12.698;2023-06-10T02:13:40;0.33;;;0.20;;
14209;SDS011;7188;56.070;12.698;2023-06-10T02:16:07;0.40;;;0.40;;
14209;SDS011;7188;56.070;12.698;2023-06-10T02:18:38;0.27;;;0.20;;
14209;SDS011;7188;56.070;12.698;2023-06-10T02:21:08;1.33;;;0.30;;
14209;SDS011;7188;56.070;12.698;2023-06-10T02:23:33;0.30;;;0.30;;
14209;SDS011;7188;56.070;12.698;2023-06-10T02:26:00;1.33;;;0.30;;
14209;SDS011;7188;56.070;12.698;2023-06-10T02:28:25;0.50;;;0.50;;
14209;SDS011;7188;56.070;12.698;2023-06-10T02:30:52;0.23;;;0.23;;
14209;SDS011;7188;56.070;12.698;2023-06-10T02:33:18;0.50;;;0.50;;
14209;SDS011;7188;56.070;12.698;2023-06-10T02:35:44;2.80;;;0.30;;
14209;SDS011;7188;56.070;12.698;2023-06-10T02:38:10;0.87;;;0.30;;
14209;SDS011;7188;56.070;12.698;2023-06-10T02:40:36;0.33;;;0.30;;
14209;SDS011;7188;56.070;12.698;2023-06-10T02:43:01;1.90;;;0.30;;
14209;SDS011;7188;56.070;12.698;2023-06-10T02:45:28;1.60;;;0.27;;
14209;SDS011;7188;56.070;12.698;2023-06-10T02:47:54;1.50;;;0.20;;
14209;SDS011;7188;56.070;12.698;2023-06-10T02:50:20;0.40;;;0.20;;
14209;SDS011;7188;56.070;12.698;2023-06-10T02:52:46;0.87;;;0.27;;
14209;SDS011;7188;56.070;12.698;2023-06-10T02:55:13;0.43;;;0.20;;
14209;SDS011;7188;56.070;12.698;2023-06-10T02:57:39;1.37;;;0.30;;
14209;SDS011;7188;56.070;12.698;2023-06-10T03:00:05;0.20;;;0.20;;
14209;SDS011;7188;56.070;12.698;2023-06-10T03:02:35;0.40;;;0.20;;
14209;SDS011;7188;56.070;12.698;2023-06-10T03:05:02;0.30;;;0.30;;
14209;SDS011;7188;56.070;12.698;2023-06-10T03:07:28;0.20;;;0.20;;
14209;SDS011;7188;56.070;12.698;2023-06-10T03:09:53;0.73;;;0.20;;
14209;SDS011;7188;56.070;12.698;2023-06-10T03:12:20;0.33;;;0.20;;
14209;SDS011;7188;56.070;12.698;2023-06-10T03:14:45;0.60;;;0.30;;
14209;SDS011;7188;56.070;12.698;2023-06-10T03:17:11;0.43;;;0.20;;
14209;SDS011;7188;56.070;12.698;2023-06-10T03:19:36;0.37;;;0.27;;
14209;SDS011;7188;56.070;12.698;2023-06-10T03:22:09;0.90;;;0.30;;
14209;SDS011;7188;56.070;12.698;2023-06-10T03:24:41;0.40;;;0.20;;
14209;SDS011;7188;56.070;12.698;2023-06-10T03:27:09;0.40;;;0.40;;
14209;SDS011;7188;56.070;12.698;2023-06-10T03:29:36;0.30;;;0.20;;
14209;SDS011;7188;56.070;12.698;2023-06-10T03:32:02;0.97;;;0.30;;
14209;SDS011;7188;56.070;12.698;2023-06-10T03:34:38;0.33;;;0.33;;
14209;SDS011;7188;56.070;12.698;2023-06-10T03:37:04;0.53;;;0.30;;
14209;SDS011;7188;56.070;12.698;2023-06-10T03:39:30;0.37;;;0.20;;
14209;SDS011;7188;56.070;12.698;2023-06-10T03:41:56;0.20;;;0.20;;
14209;SDS011;7188;56.070;12.698;2023-06-10T03:44:22;2.90;;;0.33;;
14209;SDS011;7188;56.070;12.698;2023-06-10T03:46:49;0.57;;;0.30;;
14209;SDS011;7188;56.070;12.698;2023-06-10T03:49:15;2.13;;;0.20;;
14209;SDS011;7188;56.070;12.698;2023-06-10T03:51:42;1.93;;;0.50;;
14209;SDS011;7188;56.070;12.698;2023-06-10T03:54:08;0.43;;;0.27;;
14209;SDS011;7188;56.070;12.698;2023-06-10T03:56:33;0.30;;;0.20;;
14209;SDS011;7188;56.070;12.698;2023-06-10T03:59:00;2.70;;;0.73;;
14209;SDS011;7188;56.070;12.698;2023-06-10T04:01:26;1.50;;;0.40;;
14209;SDS011;7188;56.070;12.698;2023-06-10T04:03:52;0.30;;;0.20;;
14209;SDS011;7188;56.070;12.698;2023-06-10T04:06:19;2.37;;;0.30;;
14209;SDS011;7188;56.070;12.698;2023-06-10T04:08:46;0.43;;;0.20;;
14209;SDS011;7188;56.070;12.698;2023-06-10T04:11:12;0.57;;;0.20;;
14209;SDS011;7188;56.070;12.698;2023-06-10T04:13:38;0.63;;;0.13;;
14209;SDS011;7188;56.070;12.698;2023-06-10T04:16:05;0.43;;;0.30;;
14209;SDS011;7188;56.070;12.698;2023-06-10T04:18:30;0.37;;;0.20;;
14209;SDS011;7188;56.070;12.698;2023-06-10T04:20:56;0.97;;;0.20;;
14209;SDS011;7188;56.070;12.698;2023-06-10T04:23:22;0.10;;;0.10;;
14209;SDS011;7188;56.070;12.698;2023-06-10T04:25:47;1.53;;;0.30;;
14209;SDS011;7188;56.070;12.698;2023-06-10T04:28:14;1.50;;;0.70;;
14209;SDS011;7188;56.070;12.698;2023-06-10T04:30:41;1.13;;;0.30;;
14209;SDS011;7188;56.070;12.698;2023-06-10T04:33:07;3.60;;;0.37;;
14209;SDS011;7188;56.070;12.698;2023-06-10T04:35:34;1.67;;;0.30;;
14209;SDS011;7188;56.070;12.698;2023-06-10T04:38:00;0.83;;;0.30;;
14209;SDS011;7188;56.070;12.698;2023-06-10T04:40:28;0.80;;;0.20;;
14209;SDS011;7188;56.070;12.698;2023-06-10T04:42:53;1.13;;;0.30;;
14209;SDS011;7188;56.070;12.698;2023-06-10T04:45:19;0.33;;;0.30;;
14209;SDS011;7188;56.070;12.698;2023-06-10T04:47:45;0.30;;;0.30;;
14209;SDS011;7188;56.070;12.698;2023-06-10T04:50:11;0.30;;;0.20;;
14209;SDS011;7188;56.070;12.698;2023-06-10T04:52:37;0.70;;;0.33;;
14209;SDS011;7188;56.070;12.698;2023-06-10T04:55:02;0.97;;;0.30;;
14209;SDS011;7188;56.070;12.698;2023-06-10T04:57:28;5.10;;;0.40;;
14209;SDS011;7188;56.070;12.698;2023-06-10T04:59:54;0.73;;;0.30;;
14209;SDS011;7188;56.070;12.698;2023-06-10T05:02:19;0.20;;;0.20;;
14209;SDS011;7188;56.070;12.698;2023-06-10T05:04:45;0.33;;;0.30;;
14209;SDS011;7188;56.070;12.698;2023-06-10T05:07:11;1.37;;;0.27;;
14209;SDS011;7188;56.070;12.698;2023-06-10T05:09:36;0.30;;;0.30;;
14209;SDS011;7188;56.070;12.698;2023-06-10T05:12:03;0.30;;;0.27;;
14209;SDS011;7188;56.070;12.698;2023-06-10T05:14:29;0.60;;;0.30;;
14209;SDS011;7188;56.070;12.698;2023-06-10T05:16:55;0.73;;;0.30;;
14209;SDS011;7188;56.070;12.698;2023-06-10T05:19:20;1.90;;;0.40;;
14209;SDS011;7188;56.070;12.698;2023-06-10T05:21:46;1.80;;;0.30;;
14209;SDS011;7188;56.070;12.698;2023-06-10T05:24:11;2.13;;;0.30;;
14209;SDS011;7188;56.070;12.698;2023-06-10T05:26:37;1.20;;;0.40;;
14209;SDS011;7188;56.070;12.698;2023-06-10T05:29:06;2.47;;;0.37;;
14209;SDS011;7188;56.070;12.698;2023-06-10T05:31:33;0.60;;;0.50;;
14209;SDS011;7188;56.070;12.698;2023-06-10T05:33:58;2.50;;;0.40;;
14209;SDS011;7188;56.070;12.698;2023-06-10T05:36:24;1.03;;;0.40;;
14209;SDS011;7188;56.070;12.698;2023-06-10T05:38:52;2.00;;;0.40;;
14209;SDS011;7188;56.070;12.698;2023-06-10T05:41:18;0.83;;;0.40;;
14209;SDS011;7188;56.070;12.698;2023-06-10T05:43:44;2.80;;;0.40;;
14209;SDS011;7188;56.070;12.698;2023-06-10T05:48:54;0.67;;;0.30;;
14209;SDS011;7188;56.070;12.698;2023-06-10T05:51:19;0.50;;;0.50;;
14209;SDS011;7188;56.070;12.698;2023-06-10T05:53:45;2.07;;;0.30;;
14209;SDS011;7188;56.070;12.698;2023-06-10T05:56:11;0.40;;;0.30;;
14209;SDS011;7188;56.070;12.698;2023-06-10T05:58:38;1.97;;;0.50;;
14209;SDS011;7188;56.070;12.698;2023-06-10T06:01:03;1.13;;;0.40;;
14209;SDS011;7188;56.070;12.698;2023-06-10T06:03:29;2.20;;;0.40;;
14209;SDS011;7188;56.070;12.698;2023-06-10T06:05:55;3.17;;;0.30;;
14209;SDS011;7188;56.070;12.698;2023-06-10T06:08:21;0.73;;;0.40;;
14209;SDS011;7188;56.070;12.698;2023-06-10T06:10:46;0.53;;;0.23;;
14209;SDS011;7188;56.070;12.698;2023-06-10T06:13:15;0.43;;;0.33;;
14209;SDS011;7188;56.070;12.698;2023-06-10T06:15:40;1.63;;;0.30;;
14209;SDS011;7188;56.070;12.698;2023-06-10T06:18:06;0.40;;;0.40;;
14209;SDS011;7188;56.070;12.698;2023-06-10T06:20:32;0.63;;;0.30;;
14209;SDS011;7188;56.070;12.698;2023-06-10T06:22:57;1.30;;;0.30;;
14209;SDS011;7188;56.070;12.698;2023-06-10T06:25:23;0.50;;;0.30;;
14209;SDS011;7188;56.070;12.698;2023-06-10T06:27:49;1.50;;;0.40;;
14209;SDS011;7188;56.070;12.698;2023-06-10T06:30:14;2.40;;;0.60;;
14209;SDS011;7188;56.070;12.698;2023-06-10T06:32:40;1.63;;;0.20;;
14209;SDS011;7188;56.070;12.698;2023-06-10T06:35:06;1.33;;;0.70;;
14209;SDS011;7188;56.070;12.698;2023-06-10T06:37:33;1.40;;;0.50;;
14209;SDS011;7188;56.070;12.698;2023-06-10T06:39:59;3.17;;;0.30;;
14209;SDS011;7188;56.070;12.698;2023-06-10T06:42:25;1.23;;;0.40;;
14209;SDS011;7188;56.070;12.698;2023-06-10T06:44:50;1.43;;;0.50;;
14209;SDS011;7188;56.070;12.698;2023-06-10T06:47:16;3.03;;;0.50;;
14209;SDS011;7188;56.070;12.698;2023-06-10T06:49:48;1.00;;;0.47;;
14209;SDS011;7188;56.070;12.698;2023-06-10T06:52:16;0.50;;;0.30;;
14209;SDS011;7188;56.070;12.698;2023-06-10T06:54:42;1.93;;;0.30;;
14209;SDS011;7188;56.070;12.698;2023-06-10T06:57:08;1.43;;;0.50;;
14209;SDS011;7188;56.070;12.698;2023-06-10T06:59:33;1.07;;;0.40;;
14209;SDS011;7188;56.070;12.698;2023-06-10T07:01:59;2.00;;;0.40;;
14209;SDS011;7188;56.070;12.698;2023-06-10T07:04:25;1.17;;;0.40;;
14209;SDS011;7188;56.070;12.698;2023-06-10T07:06:50;0.80;;;0.40;;
14209;SDS011;7188;56.070;12.698;2023-06-10T07:09:16;0.97;;;0.40;;
14209;SDS011;7188;56.070;12.698;2023-06-10T07:11:45;2.93;;;0.50;;
14209;SDS011;7188;56.070;12.698;2023-06-10T07:14:10;3.13;;;0.57;;
14209;SDS011;7188;56.070;12.698;2023-06-10T07:16:36;1.80;;;0.37;;
14209;SDS011;7188;56.070;12.698;2023-06-10T07:19:02;1.30;;;0.50;;
14209;SDS011;7188;56.070;12.698;2023-06-10T07:21:29;1.17;;;0.60;;
14209;SDS011;7188;56.070;12.698;2023-06-10T07:23:55;1.70;;;0.43;;
14209;SDS011;7188;56.070;12.698;2023-06-10T07:26:22;2.10;;;0.50;;
14209;SDS011;7188;56.070;12.698;2023-06-10T07:28:47;2.20;;;0.43;;
14209;SDS011;7188;56.070;12.698;2023-06-10T07:31:13;1.93;;;0.40;;
14209;SDS011;7188;56.070;12.698;2023-06-10T07:33:39;0.77;;;0.40;;
14209;SDS011;7188;56.070;12.698;2023-06-10T07:36:05;2.50;;;0.30;;
14209;SDS011;7188;56.070;12.698;2023-06-10T07:38:31;1.43;;;0.47;;
14209;SDS011;7188;56.070;12.698;2023-06-10T07:40:57;1.10;;;0.40;;
14209;SDS011;7188;56.070;12.698;2023-06-10T07:43:22;4.63;;;0.53;;
14209;SDS011;7188;56.070;12.698;2023-06-10T07:45:48;0.97;;;0.60;;
14209;SDS011;7188;56.070;12.698;2023-06-10T07:48:14;0.93;;;0.50;;
14209;SDS011;7188;56.070;12.698;2023-06-10T07:50:40;0.43;;;0.40;;
14209;SDS011;7188;56.070;12.698;2023-06-10T07:53:06;2.40;;;0.37;;
14209;SDS011;7188;56.070;12.698;2023-06-10T07:55:31;1.67;;;0.40;;
14209;SDS011;7188;56.070;12.698;2023-06-10T07:57:57;0.93;;;0.40;;
14209;SDS011;7188;56.070;12.698;2023-06-10T08:00:23;1.25;;;0.43;;
14209;SDS011;7188;56.070;12.698;2023-06-10T08:02:49;2.73;;;0.40;;
14209;SDS011;7188;56.070;12.698;2023-06-10T08:05:15;2.50;;;0.30;;
14209;SDS011;7188;56.070;12.698;2023-06-10T08:07:41;1.80;;;0.40;;
14209;SDS011;7188;56.070;12.698;2023-06-10T08:10:07;3.13;;;0.50;;
14209;SDS011;7188;56.070;12.698;2023-06-10T08:12:34;0.95;;;0.40;;
14209;SDS011;7188;56.070;12.698;2023-06-10T08:15:00;0.47;;;0.47;;
14209;SDS011;7188;56.070;12.698;2023-06-10T08:17:26;2.28;;;0.40;;
14209;SDS011;7188;56.070;12.698;2023-06-10T08:19:52;0.85;;;0.40;;
14209;SDS011;7188;56.070;12.698;2023-06-10T08:22:18;1.95;;;0.55;;
14209;SDS011;7188;56.070;12.698;2023-06-10T08:24:43;0.88;;;0.40;;
14209;SDS011;7188;56.070;12.698;2023-06-10T08:27:09;2.47;;;0.60;;
14209;SDS011;7188;56.070;12.698;2023-06-10T08:29:35;1.52;;;0.30;;
14209;SDS011;7188;56.070;12.698;2023-06-10T08:32:01;3.85;;;0.40;;
14209;SDS011;7188;56.070;12.698;2023-06-10T08:34:27;2.15;;;0.50;;
14209;SDS011;7188;56.070;12.698;2023-06-10T08:36:52;1.08;;;0.40;;
14209;SDS011;7188;56.070;12.698;2023-06-10T08:39:20;1.02;;;0.60;;
14209;SDS011;7188;56.070;12.698;2023-06-10T08:41:51;1.63;;;0.47;;
14209;SDS011;7188;56.070;12.698;2023-06-10T08:44:28;0.63;;;0.55;;
14209;SDS011;7188;56.070;12.698;2023-06-10T08:47:01;0.40;;;0.40;;
14209;SDS011;7188;56.070;12.698;2023-06-10T08:49:34;0.93;;;0.50;;
14209;SDS011;7188;56.070;12.698;2023-06-10T08:52:03;1.00;;;0.40;;
14209;SDS011;7188;56.070;12.698;2023-06-10T08:54:31;1.95;;;0.40;;
14209;SDS011;7188;56.070;12.698;2023-06-10T08:57:03;3.03;;;0.50;;
14209;SDS011;7188;56.070;12.698;2023-06-10T08:59:33;2.15;;;0.45;;
14209;SDS011;7188;56.070;12.698;2023-06-10T09:01:59;3.30;;;0.55;;
14209;SDS011;7188;56.070;12.698;2023-06-10T09:04:27;2.00;;;0.50;;
14209;SDS011;7188;56.070;12.698;2023-06-10T09:06:53;1.95;;;0.60;;
14209;SDS011;7188;56.070;12.698;2023-06-10T09:09:38;0.52;;;0.50;;
14209;SDS011;7188;56.070;12.698;2023-06-10T09:12:05;3.13;;;0.60;;
14209;SDS011;7188;56.070;12.698;2023-06-10T09:14:31;1.38;;;0.40;;
14209;SDS011;7188;56.070;12.698;2023-06-10T09:16:56;1.63;;;0.50;;
14209;SDS011;7188;56.070;12.698;2023-06-10T09:19:23;3.50;;;0.50;;
14209;SDS011;7188;56.070;12.698;2023-06-10T09:21:50;3.30;;;0.45;;
14209;SDS011;7188;56.070;12.698;2023-06-10T09:24:16;1.00;;;0.50;;
14209;SDS011;7188;56.070;12.698;2023-06-10T09:26:43;1.17;;;0.40;;
14209;SDS011;7188;56.070;12.698;2023-06-10T09:29:09;3.40;;;0.47;;
14209;SDS011;7188;56.070;12.698;2023-06-10T09:31:37;2.05;;;0.60;;
14209;SDS011;7188;56.070;12.698;2023-06-10T09:34:13;3.08;;;0.47;;
14209;SDS011;7188;56.070;12.698;2023-06-10T09:36:42;0.35;;;0.30;;
14209;SDS011;7188;56.070;12.698;2023-06-10T09:39:17;1.55;;;0.47;;
14209;SDS011;7188;56.070;12.698;2023-06-10T09:41:44;0.93;;;0.38;;
14209;SDS011;7188;56.070;12.698;2023-06-10T09:44:14;1.85;;;0.50;;
14209;SDS011;7188;56.070;12.698;2023-06-10T09:46:41;2.95;;;0.40;;
14209;SDS011;7188;56.070;12.698;2023-06-10T09:49:07;1.75;;;0.40;;
14209;SDS011;7188;56.070;12.698;2023-06-10T09:51:33;1.20;;;0.40;;
14209;SDS011;7188;56.070;12.698;2023-06-10T09:53:59;2.78;;;0.55;;
14209;SDS011;7188;56.070;12.698;2023-06-10T09:56:34;2.67;;;0.60;;
14209;SDS011;7188;56.070;12.698;2023-06-10T09:59:01;2.85;;;0.50;;
14209;SDS011;7188;56.070;12.698;2023-06-10T10:01:28;1.25;;;0.65;;
14209;SDS011;7188;56.070;12.698;2023-06-10T10:03:55;2.58;;;0.50;;
14209;SDS011;7188;56.070;12.698;2023-06-10T10:06:21;4.90;;;0.75;;
14209;SDS011;7188;56.070;12.698;2023-06-10T10:08:48;3.17;;;0.50;;
14209;SDS011;7188;56.070;12.698;2023-06-10T10:11:18;0.82;;;0.47;;
14209;SDS011;7188;56.070;12.698;2023-06-10T10:13:47;2.25;;;0.70;;
14209;SDS011;7188;56.070;12.698;2023-06-10T10:16:15;2.53;;;0.52;;
14209;SDS011;7188;56.070;12.698;2023-06-10T10:18:46;0.40;;;0.40;;
14209;SDS011;7188;56.070;12.698;2023-06-10T10:21:21;2.10;;;0.70;;
14209;SDS011;7188;56.070;12.698;2023-06-10T10:26:33;2.13;;;0.63;;
14209;SDS011;7188;56.070;12.698;2023-06-10T10:31:39;2.15;;;0.60;;
14209;SDS011;7188;56.070;12.698;2023-06-10T10:34:19;3.38;;;0.73;;
14209;SDS011;7188;56.070;12.698;2023-06-10T10:36:47;1.83;;;0.60;;
14209;SDS011;7188;56.070;12.698;2023-06-10T10:42:01;1.95;;;0.50;;
14209;SDS011;7188;56.070;12.698;2023-06-10T10:44:29;0.95;;;0.50;;
14209;SDS011;7188;56.070;12.698;2023-06-10T10:46:55;1.20;;;0.55;;
14209;SDS011;7188;56.070;12.698;2023-06-10T10:49:22;2.80;;;0.60;;
14209;SDS011;7188;56.070;12.698;2023-06-10T10:51:59;1.60;;;0.65;;
14209;SDS011;7188;56.070;12.698;2023-06-10T10:54:29;1.30;;;0.60;;
14209;SDS011;7188;56.070;12.698;2023-06-10T10:57:30;3.10;;;1.05;;
14209;SDS011;7188;56.070;12.698;2023-06-10T11:05:10;4.15;;;0.65;;
14209;SDS011;7188;56.070;12.698;2023-06-10T11:07:38;1.92;;;0.70;;
14209;SDS011;7188;56.070;12.698;2023-06-10T11:12:53;3.30;;;0.68;;
14209;SDS011;7188;56.070;12.698;2023-06-10T11:15:19;1.70;;;0.73;;
14209;SDS011;7188;56.070;12.698;2023-06-10T11:18:08;1.02;;;0.70;;
14209;SDS011;7188;56.070;12.698;2023-06-10T11:33:47;4.32;;;1.00;;
14209;SDS011;7188;56.070;12.698;2023-06-10T11:36:19;2.25;;;0.63;;
14209;SDS011;7188;56.070;12.698;2023-06-10T11:38:44;2.28;;;0.70;;
14209;SDS011;7188;56.070;12.698;2023-06-10T11:41:13;2.80;;;0.60;;
14209;SDS011;7188;56.070;12.698;2023-06-10T11:43:45;2.17;;;0.73;;
14209;SDS011;7188;56.070;12.698;2023-06-10T11:46:12;2.72;;;0.90;;
14209;SDS011;7188;56.070;12.698;2023-06-10T11:48:38;3.78;;;0.80;;
14209;SDS011;7188;56.070;12.698;2023-06-10T11:51:07;1.33;;;0.90;;
14209;SDS011;7188;56.070;12.698;2023-06-10T11:53:33;5.65;;;0.70;;
14209;SDS011;7188;56.070;12.698;2023-06-10T11:56:12;1.25;;;0.80;;
14209;SDS011;7188;56.070;12.698;2023-06-10T11:58:38;1.40;;;0.68;;
14209;SDS011;7188;56.070;12.698;2023-06-10T12:01:09;5.43;;;0.80;;
14209;SDS011;7188;56.070;12.698;2023-06-10T12:03:35;3.05;;;0.95;;
14209;SDS011;7188;56.070;12.698;2023-06-10T12:06:05;2.53;;;0.80;;
14209;SDS011;7188;56.070;12.698;2023-06-10T12:08:32;8.80;;;0.77;;
14209;SDS011;7188;56.070;12.698;2023-06-10T12:11:05;3.80;;;0.85;;
14209;SDS011;7188;56.070;12.698;2023-06-10T12:13:31;6.88;;;1.10;;
14209;SDS011;7188;56.070;12.698;2023-06-10T12:16:10;6.38;;;1.08;;
14209;SDS011;7188;56.070;12.698;2023-06-10T12:18:35;4.72;;;1.30;;
14209;SDS011;7188;56.070;12.698;2023-06-10T12:21:17;5.88;;;1.23;;
14209;SDS011;7188;56.070;12.698;2023-06-10T12:26:39;5.25;;;1.10;;
14209;SDS011;7188;56.070;12.698;2023-06-10T12:31:58;4.65;;;1.08;;
14209;SDS011;7188;56.070;12.698;2023-06-10T12:36:55;3.53;;;0.90;;
14209;SDS011;7188;56.070;12.698;2023-06-10T12:39:21;2.53;;;0.82;;
14209;SDS011;7188;56.070;12.698;2023-06-10T12:41:48;3.00;;;1.15;;
14209;SDS011;7188;56.070;12.698;2023-06-10T12:44:16;2.35;;;1.00;;
14209;SDS011;7188;56.070;12.698;2023-06-10T12:46:42;1.02;;;0.90;;
14209;SDS011;7188;56.070;12.698;2023-06-10T12:49:18;1.83;;;1.10;;
14209;SDS011;7188;56.070;12.698;2023-06-10T12:51:44;2.28;;;1.10;;
14209;SDS011;7188;56.070;12.698;2023-06-10T12:54:11;7.38;;;1.63;;
14209;SDS011;7188;56.070;12.698;2023-06-10T12:56:38;1.95;;;1.15;;
14209;SDS011;7188;56.070;12.698;2023-06-10T12:59:04;1.13;;;1.00;;
14209;SDS011;7188;56.070;12.698;2023-06-10T13:01:29;2.25;;;1.20;;
14209;SDS011;7188;56.070;12.698;2023-06-10T13:03:56;1.50;;;1.15;;
14209;SDS011;7188;56.070;12.698;2023-06-10T13:06:22;3.97;;;0.85;;
14209;SDS011;7188;56.070;12.698;2023-06-10T13:08:48;1.55;;;1.30;;
14209;SDS011;7188;56.070;12.698;2023-06-10T13:11:14;1.67;;;1.33;;
14209;SDS011;7188;56.070;12.698;2023-06-10T13:13:40;2.78;;;0.90;;
14209;SDS011;7188;56.070;12.698;2023-06-10T13:16:07;5.70;;;0.90;;
14209;SDS011;7188;56.070;12.698;2023-06-10T13:18:32;3.88;;;1.10;;
14209;SDS011;7188;56.070;12.698;2023-06-10T13:21:02;2.10;;;0.82;;
14209;SDS011;7188;56.070;12.698;2023-06-10T13:23:28;2.08;;;0.90;;
14209;SDS011;7188;56.070;12.698;2023-06-10T13:25:56;6.35;;;1.30;;
14209;SDS011;7188;56.070;12.698;2023-06-10T13:28:22;2.88;;;0.80;;
14209;SDS011;7188;56.070;12.698;2023-06-10T13:30:47;3.13;;;1.20;;
14209;SDS011;7188;56.070;12.698;2023-06-10T13:33:16;2.28;;;0.93;;
14209;SDS011;7188;56.070;12.698;2023-06-10T13:35:42;3.80;;;1.10;;
14209;SDS011;7188;56.070;12.698;2023-06-10T13:38:07;4.88;;;0.98;;
14209;SDS011;7188;56.070;12.698;2023-06-10T13:40:34;4.22;;;1.00;;
14209;SDS011;7188;56.070;12.698;2023-06-10T13:42:59;4.00;;;1.30;;
14209;SDS011;7188;56.070;12.698;2023-06-10T13:45:25;2.28;;;1.00;;
14209;SDS011;7188;56.070;12.698;2023-06-10T13:47:53;5.47;;;0.90;;
14209;SDS011;7188;56.070;12.698;2023-06-10T13:50:18;6.00;;;1.05;;
14209;SDS011;7188;56.070;12.698;2023-06-10T13:52:44;3.08;;;0.80;;
14209;SDS011;7188;56.070;12.698;2023-06-10T13:55:09;2.72;;;1.10;;
14209;SDS011;7188;56.070;12.698;2023-06-10T13:57:35;2.67;;;0.63;;
14209;SDS011;7188;56.070;12.698;2023-06-10T14:00:01;6.57;;;1.13;;
14209;SDS011;7188;56.070;12.698;2023-06-10T14:02:27;4.30;;;1.08;;
14209;SDS011;7188;56.070;12.698;2023-06-10T14:04:52;3.72;;;1.00;;
14209;SDS011;7188;56.070;12.698;2023-06-10T14:07:18;4.22;;;0.70;;
14209;SDS011;7188;56.070;12.698;2023-06-10T14:09:43;0.93;;;0.70;;
14209;SDS011;7188;56.070;12.698;2023-06-10T14:12:10;3.13;;;0.80;;
14209;SDS011;7188;56.070;12.698;2023-06-10T14:14:36;2.28;;;0.70;;
14209;SDS011;7188;56.070;12.698;2023-06-10T14:17:02;3.20;;;0.80;;
14209;SDS011;7188;56.070;12.698;2023-06-10T14:19:30;3.15;;;0.90;;
14209;SDS011;7188;56.070;12.698;2023-06-10T14:21:56;4.00;;;0.90;;
14209;SDS011;7188;56.070;12.698;2023-06-10T14:24:22;1.90;;;0.85;;
14209;SDS011;7188;56.070;12.698;2023-06-10T14:26:47;2.65;;;1.02;;
14209;SDS011;7188;56.070;12.698;2023-06-10T14:29:13;3.17;;;0.73;;
14209;SDS011;7188;56.070;12.698;2023-06-10T14:31:39;2.63;;;0.70;;
14209;SDS011;7188;56.070;12.698;2023-06-10T14:34:05;1.00;;;0.70;;
14209;SDS011;7188;56.070;12.698;2023-06-10T14:36:33;2.50;;;0.50;;
14209;SDS011;7188;56.070;12.698;2023-06-10T14:38:58;2.90;;;0.80;;
14209;SDS011;7188;56.070;12.698;2023-06-10T14:41:24;4.15;;;0.60;;
14209;SDS011;7188;56.070;12.698;2023-06-10T14:43:51;1.98;;;0.60;;
14209;SDS011;7188;56.070;12.698;2023-06-10T14:46:16;1.55;;;0.70;;
14209;SDS011;7188;56.070;12.698;2023-06-10T14:48:48;3.80;;;0.70;;
14209;SDS011;7188;56.070;12.698;2023-06-10T14:51:15;2.50;;;0.60;;
14209;SDS011;7188;56.070;12.698;2023-06-10T14:53:40;0.63;;;0.50;;
14209;SDS011;7188;56.070;12.698;2023-06-10T14:56:06;3.40;;;0.70;;
14209;SDS011;7188;56.070;12.698;2023-06-10T14:58:32;2.33;;;0.80;;
14209;SDS011;7188;56.070;12.698;2023-06-10T15:00:58;1.27;;;0.50;;
14209;SDS011;7188;56.070;12.698;2023-06-10T15:03:24;1.30;;;0.50;;
14209;SDS011;7188;56.070;12.698;2023-06-10T15:05:49;4.60;;;0.68;;
14209;SDS011;7188;56.070;12.698;2023-06-10T15:08:15;2.00;;;0.68;;
14209;SDS011;7188;56.070;12.698;2023-06-10T15:10:41;5.28;;;0.57;;
14209;SDS011;7188;56.070;12.698;2023-06-10T15:13:07;2.50;;;0.50;;
14209;SDS011;7188;56.070;12.698;2023-06-10T15:15:32;1.63;;;0.50;;
14209;SDS011;7188;56.070;12.698;2023-06-10T15:17:58;1.85;;;0.93;;
14209;SDS011;7188;56.070;12.698;2023-06-10T15:20:25;6.90;;;0.77;;
14209;SDS011;7188;56.070;12.698;2023-06-10T15:22:50;2.83;;;0.60;;
14209;SDS011;7188;56.070;12.698;2023-06-10T15:25:16;3.60;;;0.55;;
14209;SDS011;7188;56.070;12.698;2023-06-10T15:27:42;1.75;;;0.60;;
14209;SDS011;7188;56.070;12.698;2023-06-10T15:30:08;3.45;;;0.60;;